createdAt,value
2023-04-20T00:00:37.444Z,12.82
2023-04-20T00:03:04.115Z,9.25
2023-04-20T00:05:32.266Z,8.63
2023-04-20T00:07:59.201Z,7.32
2023-04-20T00:10:26.111Z,12.85
2023-04-20T00:12:52.759Z,10.63
2023-04-20T00:15:19.396Z,8.73
2023-04-20T00:17:46.662Z,7.13
2023-04-20T00:20:13.430Z,10.40
2023-04-20T00:22:40.101Z,8.00
2023-04-20T00:25:07.542Z,7.10
2023-04-20T00:27:34.326Z,7.95
2023-04-20T00:30:00.946Z,11.82
2023-04-20T00:32:28.513Z,8.35
2023-04-20T00:34:55.388Z,9.48
2023-04-20T00:37:22.059Z,7.82
2023-04-20T00:39:48.687Z,12.13
2023-04-20T00:42:15.305Z,10.40
2023-04-20T00:44:41.922Z,7.43
2023-04-20T00:47:08.558Z,8.35
2023-04-20T00:49:35.272Z,5.95
2023-04-20T00:52:01.968Z,8.60
2023-04-20T00:54:30.072Z,9.27
2023-04-20T00:56:58.182Z,11.02
2023-04-20T00:59:24.986Z,7.50
2023-04-20T01:01:51.654Z,8.15
2023-04-20T01:04:19.296Z,8.00
2023-04-20T01:06:46.137Z,7.55
2023-04-20T01:09:13.030Z,10.48
2023-04-20T01:11:39.923Z,9.07
2023-04-20T01:14:06.809Z,8.35
2023-04-20T01:16:37.329Z,9.70
2023-04-20T01:19:04.276Z,8.57
2023-04-20T01:21:31.260Z,11.85
2023-04-20T01:23:58.280Z,9.57
2023-04-20T01:26:25.837Z,11.30
2023-04-20T01:28:52.550Z,7.75
2023-04-20T01:31:20.151Z,7.57
2023-04-20T01:33:47.031Z,7.70
2023-04-20T01:36:14.478Z,11.35
2023-04-20T01:38:41.336Z,8.90
2023-04-20T01:41:09.889Z,8.43
2023-04-20T01:43:37.418Z,7.38
2023-04-20T01:46:04.991Z,8.82
2023-04-20T01:48:31.676Z,7.65
2023-04-20T01:50:58.590Z,10.32
2023-04-20T01:53:28.075Z,8.05
2023-04-20T01:55:55.286Z,6.55
2023-04-20T01:58:21.964Z,11.00
2023-04-20T02:00:48.643Z,9.60
2023-04-20T02:03:15.493Z,9.43
2023-04-20T02:05:42.531Z,10.05
2023-04-20T02:08:09.195Z,9.98
2023-04-20T02:10:36.028Z,11.13
2023-04-20T02:13:02.724Z,9.77
2023-04-20T02:15:29.366Z,8.02
2023-04-20T02:17:56.031Z,10.25
2023-04-20T02:20:22.781Z,9.88
2023-04-20T02:22:49.378Z,10.13
2023-04-20T02:25:16.074Z,9.13
2023-04-20T02:27:42.784Z,11.75
2023-04-20T02:30:10.687Z,7.55
2023-04-20T02:32:37.640Z,7.22
2023-04-20T02:35:04.753Z,8.32
2023-04-20T02:37:32.214Z,8.95
2023-04-20T02:39:59.103Z,8.27
2023-04-20T02:42:26.160Z,9.23
2023-04-20T02:44:53.007Z,13.70
2023-04-20T02:47:22.810Z,8.48
2023-04-20T02:49:49.484Z,10.75
2023-04-20T02:52:16.368Z,8.35
2023-04-20T02:54:43.031Z,7.22
2023-04-20T02:57:11.666Z,12.25
2023-04-20T02:59:38.412Z,9.00
2023-04-20T03:02:05.548Z,10.82
2023-04-20T03:04:32.425Z,9.73
2023-04-20T03:07:00.426Z,6.82
2023-04-20T03:09:27.222Z,6.55
2023-04-20T03:11:54.424Z,8.57
2023-04-20T03:14:21.023Z,7.47
2023-04-20T03:16:47.666Z,8.93
2023-04-20T03:19:21.319Z,10.45
2023-04-20T03:21:47.984Z,7.18
2023-04-20T03:24:14.652Z,9.35
2023-04-20T03:26:41.438Z,8.55
2023-04-20T03:29:08.390Z,8.75
2023-04-20T03:31:35.205Z,9.48
2023-04-20T03:34:01.816Z,8.30
2023-04-20T03:36:28.496Z,9.07
2023-04-20T03:38:55.082Z,9.93
2023-04-20T03:41:22.313Z,8.15
2023-04-20T03:43:48.955Z,8.88
2023-04-20T03:46:16.014Z,7.88
2023-04-20T03:48:42.802Z,6.15
2023-04-20T03:51:09.403Z,8.50
2023-04-20T03:53:37.536Z,9.27
2023-04-20T03:56:06.182Z,7.47
2023-04-20T03:58:32.722Z,9.07
2023-04-20T04:01:09.647Z,7.38
2023-04-20T04:03:36.785Z,9.25
2023-04-20T04:06:04.254Z,7.45
2023-04-20T04:08:32.345Z,8.23
2023-04-20T04:11:00.418Z,8.10
2023-04-20T04:13:27.023Z,8.57
2023-04-20T04:15:53.864Z,10.75
2023-04-20T04:18:22.183Z,8.65
2023-04-20T04:20:48.871Z,8.93
2023-04-20T04:23:15.570Z,12.77
2023-04-20T04:25:42.497Z,13.23
2023-04-20T04:28:09.329Z,9.88
2023-04-20T04:30:35.947Z,11.30
2023-04-20T04:33:04.973Z,13.07
2023-04-20T04:35:33.356Z,9.38
2023-04-20T04:38:00.829Z,14.85
2023-04-20T04:40:27.517Z,11.80
2023-04-20T04:42:55.609Z,9.73
2023-04-20T04:45:25.331Z,9.18
2023-04-20T04:47:54.792Z,9.50
2023-04-20T04:50:22.129Z,10.07
2023-04-20T04:52:48.865Z,7.40
2023-04-20T04:55:16.519Z,8.38
2023-04-20T04:57:43.378Z,10.15
2023-04-20T05:00:12.061Z,12.50
2023-04-20T05:02:39.043Z,9.85
2023-04-20T05:05:08.201Z,9.88
2023-04-20T05:07:36.372Z,8.60
2023-04-20T05:10:03.114Z,14.45
2023-04-20T05:12:29.748Z,16.23
2023-04-20T05:14:56.489Z,14.90
2023-04-20T05:17:23.253Z,15.20
2023-04-20T05:19:49.930Z,15.05
2023-04-20T05:22:17.219Z,10.07
2023-04-20T05:24:43.823Z,9.93
2023-04-20T05:27:11.479Z,11.73
2023-04-20T05:29:38.667Z,11.63
2023-04-20T05:32:05.645Z,9.30
2023-04-20T05:34:32.291Z,12.93
2023-04-20T05:36:59.286Z,12.10
2023-04-20T05:39:26.353Z,16.10
2023-04-20T05:41:53.091Z,19.25
2023-04-20T05:44:19.685Z,17.88
2023-04-20T05:46:47.145Z,14.50
2023-04-20T05:49:13.923Z,14.63
2023-04-20T05:51:40.553Z,15.73
2023-04-20T05:54:07.241Z,16.35
2023-04-20T05:56:33.983Z,13.18
2023-04-20T05:59:00.800Z,13.50
2023-04-20T06:01:27.668Z,12.93
2023-04-20T06:03:54.663Z,12.55
2023-04-20T06:06:21.573Z,14.75
2023-04-20T06:08:48.465Z,13.38
2023-04-20T06:11:15.094Z,17.38
2023-04-20T06:13:41.735Z,14.02
2023-04-20T06:16:10.933Z,12.52
2023-04-20T06:18:37.773Z,13.85
2023-04-20T06:21:04.603Z,14.93
2023-04-20T06:23:31.385Z,13.48
2023-04-20T06:25:57.977Z,17.08
2023-04-20T06:28:24.574Z,13.27
2023-04-20T06:30:51.308Z,16.77
2023-04-20T06:33:18.129Z,12.88
2023-04-20T06:35:44.763Z,14.07
2023-04-20T06:38:11.437Z,11.48
2023-04-20T06:40:38.248Z,14.48
2023-04-20T06:43:05.234Z,13.43
2023-04-20T06:45:33.616Z,14.85
2023-04-20T06:48:01.006Z,13.23
2023-04-20T06:50:27.774Z,15.55
2023-04-20T06:52:54.447Z,16.15
2023-04-20T06:55:21.394Z,15.63
2023-04-20T06:57:48.072Z,13.93
2023-04-20T07:00:15.669Z,16.83
2023-04-20T07:02:47.695Z,15.30
2023-04-20T07:05:15.809Z,18.30
2023-04-20T07:07:43.191Z,15.88
2023-04-20T07:10:11.690Z,12.18
2023-04-20T07:12:40.934Z,16.73
2023-04-20T07:15:09.944Z,11.43
2023-04-20T07:17:36.604Z,13.07
2023-04-20T07:20:08.574Z,17.10
2023-04-20T07:22:36.994Z,11.43
2023-04-20T07:25:06.078Z,11.10
2023-04-20T07:27:37.571Z,11.32
2023-04-20T07:30:06.337Z,9.77
2023-04-20T07:32:37.071Z,13.00
2023-04-20T07:35:04.421Z,13.15
2023-04-20T07:37:34.314Z,12.73
2023-04-20T07:40:02.292Z,11.73
2023-04-20T07:42:29.802Z,12.25
2023-04-20T07:44:56.460Z,18.95
2023-04-20T07:47:23.188Z,12.75
2023-04-20T07:49:49.895Z,11.93
2023-04-20T07:52:17.472Z,12.60
2023-04-20T07:54:47.775Z,11.23
2023-04-20T07:57:15.319Z,13.30
2023-04-20T07:59:42.145Z,12.27
2023-04-20T08:02:09.325Z,10.65
2023-04-20T08:04:38.192Z,11.23
2023-04-20T08:07:05.199Z,8.57
2023-04-20T08:09:32.059Z,14.13
2023-04-20T08:11:58.858Z,10.65
2023-04-20T08:14:25.570Z,13.48
2023-04-20T08:16:52.370Z,10.32
2023-04-20T08:19:19.062Z,13.05
2023-04-20T08:21:45.726Z,11.32
2023-04-20T08:24:13.366Z,9.10
2023-04-20T08:26:40.744Z,14.80
2023-04-20T08:29:07.417Z,12.77
2023-04-20T08:31:34.256Z,11.95
2023-04-20T08:34:01.479Z,13.35
2023-04-20T08:36:28.358Z,12.32
2023-04-20T08:39:07.603Z,13.23
2023-04-20T08:41:34.390Z,12.25
2023-04-20T08:44:01.044Z,11.52
2023-04-20T08:46:28.861Z,14.38
2023-04-20T08:48:56.545Z,12.57
2023-04-20T08:51:24.192Z,14.65
2023-04-20T08:53:51.541Z,12.50
2023-04-20T08:56:18.192Z,13.63
2023-04-20T08:58:44.847Z,15.23
2023-04-20T09:01:14.092Z,11.55
2023-04-20T09:03:44.501Z,13.00
2023-04-20T09:06:18.386Z,12.85
2023-04-20T09:08:46.660Z,13.80
2023-04-20T09:11:23.277Z,10.93
2023-04-20T09:13:59.804Z,11.30
2023-04-20T09:16:26.524Z,13.00
2023-04-20T09:18:54.466Z,10.15
2023-04-20T09:21:22.160Z,11.63
2023-04-20T09:24:03.066Z,10.18
2023-04-20T09:26:34.525Z,11.48
2023-04-20T09:29:05.309Z,10.65
2023-04-20T09:31:31.980Z,10.77
2023-04-20T09:34:03.541Z,8.63
2023-04-20T09:36:45.402Z,11.40
2023-04-20T09:39:17.456Z,13.18
2023-04-20T09:41:45.069Z,9.88
2023-04-20T09:44:12.749Z,12.30
2023-04-20T09:46:41.522Z,11.52
2023-04-20T09:49:09.799Z,10.23
2023-04-20T09:51:42.075Z,10.15
2023-04-20T09:54:09.316Z,10.13
2023-04-20T09:56:36.148Z,9.93
2023-04-20T09:59:04.231Z,10.00
2023-04-20T10:01:34.560Z,12.07
2023-04-20T10:04:04.005Z,10.05
2023-04-20T10:06:33.461Z,11.38
2023-04-20T10:09:05.460Z,10.80
2023-04-20T10:11:52.360Z,10.38
2023-04-20T10:14:25.559Z,12.48
2023-04-20T10:17:04.331Z,10.27
2023-04-20T10:19:42.351Z,10.55
2023-04-20T10:22:12.950Z,9.65
2023-04-20T10:24:40.494Z,9.93
2023-04-20T10:27:17.787Z,13.18
2023-04-20T10:29:44.426Z,12.18
2023-04-20T10:32:28.411Z,9.73
2023-04-20T10:35:03.222Z,9.30
2023-04-20T10:37:30.160Z,9.82
2023-04-20T10:39:57.032Z,9.88
2023-04-20T10:42:23.673Z,14.38
2023-04-20T10:44:51.845Z,10.30
2023-04-20T10:47:26.981Z,9.98
2023-04-20T10:49:53.736Z,8.23
2023-04-20T10:52:38.801Z,8.52
2023-04-20T10:55:09.856Z,10.20
2023-04-20T10:57:36.445Z,7.90
2023-04-20T11:00:16.665Z,7.43
2023-04-20T11:02:51.572Z,5.85
2023-04-20T11:05:19.762Z,7.30
2023-04-20T11:08:01.107Z,5.85
2023-04-20T11:10:39.808Z,6.85
2023-04-20T11:13:07.444Z,8.57
2023-04-20T11:15:35.377Z,6.00
2023-04-20T11:18:09.953Z,7.68
2023-04-20T11:20:36.714Z,7.70
2023-04-20T11:23:05.184Z,8.60
2023-04-20T11:25:32.252Z,5.97
2023-04-20T11:28:09.276Z,6.03
2023-04-20T11:30:42.773Z,6.88
2023-04-20T11:33:10.528Z,5.32
2023-04-20T11:35:42.291Z,5.25
2023-04-20T11:38:09.373Z,8.43
2023-04-20T11:40:36.148Z,6.43
2023-04-20T11:43:04.767Z,7.57
2023-04-20T11:45:35.738Z,5.60
2023-04-20T11:48:03.530Z,6.38
2023-04-20T11:50:30.449Z,5.05
2023-04-20T11:52:57.164Z,6.07
2023-04-20T11:55:24.010Z,7.88
2023-04-20T11:57:50.836Z,8.35
2023-04-20T12:00:18.322Z,6.63
2023-04-20T12:02:45.090Z,6.78
2023-04-20T12:05:12.144Z,8.80
2023-04-20T12:07:39.090Z,7.32
2023-04-20T12:10:07.825Z,5.93
2023-04-20T12:12:34.538Z,5.95
2023-04-20T12:15:01.827Z,9.45
2023-04-20T12:17:28.528Z,7.28
2023-04-20T12:19:55.390Z,7.80
2023-04-20T12:22:22.041Z,7.38
2023-04-20T12:24:51.629Z,5.93
2023-04-20T12:27:18.336Z,6.22
2023-04-20T12:29:45.083Z,8.20
2023-04-20T12:32:11.886Z,10.10
2023-04-20T12:34:38.515Z,7.75
2023-04-20T12:37:05.182Z,6.53
2023-04-20T12:39:31.833Z,7.28
2023-04-20T12:41:58.563Z,7.43
2023-04-20T12:44:25.201Z,5.13
2023-04-20T12:46:52.016Z,7.07
2023-04-20T12:49:18.868Z,5.80
2023-04-20T12:51:45.667Z,8.23
2023-04-20T12:54:12.319Z,8.65
2023-04-20T12:56:38.942Z,6.10
2023-04-20T12:59:05.736Z,8.07
2023-04-20T13:01:32.589Z,7.38
2023-04-20T13:03:59.481Z,5.53
2023-04-20T13:06:26.760Z,6.85
2023-04-20T13:08:53.508Z,6.80
2023-04-20T13:11:20.147Z,6.07
2023-04-20T13:13:47.230Z,8.95
2023-04-20T13:16:14.342Z,7.00
2023-04-20T13:18:41.088Z,6.97
2023-04-20T13:21:08.552Z,5.75
2023-04-20T13:23:35.545Z,9.95
2023-04-20T13:26:02.313Z,5.68
2023-04-20T13:28:30.115Z,3.67
2023-04-20T13:30:57.774Z,4.88
2023-04-20T13:33:24.841Z,9.32
2023-04-20T13:35:52.205Z,4.65
2023-04-20T13:38:19.045Z,5.68
2023-04-20T13:40:46.893Z,4.85
2023-04-20T13:43:13.816Z,4.90
2023-04-20T13:45:40.533Z,4.03
2023-04-20T13:48:07.500Z,4.43
2023-04-20T13:50:34.245Z,4.50
2023-04-20T13:53:03.240Z,4.68
2023-04-20T13:55:31.958Z,4.28
2023-04-20T13:57:58.827Z,3.47
2023-04-20T14:00:26.363Z,3.28
2023-04-20T14:02:53.423Z,4.28
2023-04-20T14:05:20.683Z,4.78
2023-04-20T14:07:47.529Z,2.90
2023-04-20T14:10:14.328Z,4.10
2023-04-20T14:12:40.996Z,5.78
2023-04-20T14:15:07.981Z,3.72
2023-04-20T14:17:34.586Z,2.33
2023-04-20T14:20:01.738Z,5.95
2023-04-20T14:22:34.268Z,3.60
2023-04-20T14:25:00.934Z,2.55
2023-04-20T14:27:27.641Z,2.17
2023-04-20T14:29:54.320Z,2.00
2023-04-20T14:32:21.175Z,2.53
2023-04-20T14:34:47.806Z,2.03
2023-04-20T14:37:14.603Z,2.13
2023-04-20T14:39:41.439Z,2.58
2023-04-20T14:42:08.394Z,3.67
2023-04-20T14:44:35.362Z,4.03
2023-04-20T14:47:03.141Z,4.07
2023-04-20T14:49:30.216Z,3.78
2023-04-20T14:51:57.107Z,5.05
2023-04-20T14:54:24.356Z,3.85
2023-04-20T14:56:51.027Z,5.63
2023-04-20T14:59:17.771Z,6.85
2023-04-20T15:01:55.312Z,5.43
2023-04-20T15:04:29.252Z,5.82
2023-04-20T15:06:56.163Z,9.70
2023-04-20T15:09:22.778Z,8.52
2023-04-20T15:11:49.430Z,6.35
2023-04-20T15:14:16.286Z,4.68
2023-04-20T15:16:43.507Z,6.18
2023-04-20T15:19:10.353Z,4.32
2023-04-20T15:21:37.048Z,3.70
2023-04-20T15:24:03.784Z,6.18
2023-04-20T15:26:30.545Z,5.90
2023-04-20T15:28:57.685Z,6.10
2023-04-20T15:31:24.415Z,3.47
2023-04-20T15:33:51.142Z,5.93
2023-04-20T15:36:18.881Z,6.03
2023-04-20T15:38:45.746Z,4.10
2023-04-20T15:41:12.424Z,4.93
2023-04-20T15:43:39.498Z,5.43
2023-04-20T15:46:06.470Z,5.07
2023-04-20T15:48:33.214Z,8.23
2023-04-20T15:50:59.867Z,3.38
2023-04-20T15:53:27.036Z,5.05
2023-04-20T15:55:53.667Z,7.68
2023-04-20T15:58:20.367Z,5.43
2023-04-20T16:00:47.036Z,3.80
2023-04-20T16:03:13.889Z,4.07
2023-04-20T16:05:40.974Z,5.20
2023-04-20T16:08:07.748Z,4.47
2023-04-20T16:10:34.463Z,4.53
2023-04-20T16:13:01.175Z,7.05
2023-04-20T16:15:27.836Z,4.45
2023-04-20T16:17:54.835Z,5.15
2023-04-20T16:20:21.626Z,4.65
2023-04-20T16:22:48.293Z,10.02
2023-04-20T16:25:23.222Z,6.20
2023-04-20T16:27:51.709Z,5.43
2023-04-20T16:30:18.670Z,8.10
2023-04-20T16:32:45.421Z,5.65
2023-04-20T16:35:12.030Z,4.40
2023-04-20T16:37:38.683Z,5.68
2023-04-20T16:40:06.322Z,6.88
2023-04-20T16:42:34.421Z,6.30
2023-04-20T16:45:01.735Z,6.18
2023-04-20T16:47:28.504Z,10.68
2023-04-20T16:49:55.439Z,9.82
2023-04-20T16:52:22.050Z,6.72
2023-04-20T16:54:48.644Z,8.07
2023-04-20T16:57:15.515Z,7.60
2023-04-20T16:59:44.635Z,8.35
2023-04-20T17:02:12.379Z,5.18
2023-04-20T17:04:39.091Z,5.20
2023-04-20T17:07:08.886Z,6.35
2023-04-20T17:09:35.849Z,8.55
2023-04-20T17:12:02.637Z,5.72
2023-04-20T17:14:32.240Z,6.40
2023-04-20T17:16:58.926Z,5.82
2023-04-20T17:19:25.742Z,5.72
2023-04-20T17:21:52.734Z,5.03
2023-04-20T17:24:19.731Z,5.32
2023-04-20T17:26:46.590Z,6.53
2023-04-20T17:29:13.903Z,5.30
2023-04-20T17:31:40.584Z,4.72
2023-04-20T17:34:07.306Z,7.15
2023-04-20T17:36:34.363Z,5.90
2023-04-20T17:39:01.412Z,7.43
2023-04-20T17:41:28.504Z,14.10
2023-04-20T17:43:58.139Z,6.32
2023-04-20T17:46:24.816Z,4.55
2023-04-20T17:48:51.508Z,7.40
2023-04-20T17:51:18.356Z,6.38
2023-04-20T17:53:45.005Z,5.57
2023-04-20T17:56:12.100Z,7.60
2023-04-20T17:58:38.751Z,11.05
2023-04-20T18:01:05.640Z,7.03
2023-04-20T18:03:32.756Z,13.95
2023-04-20T18:05:59.710Z,9.13
2023-04-20T18:08:26.573Z,8.70
2023-04-20T18:10:53.188Z,9.70
2023-04-20T18:13:19.880Z,6.88
2023-04-20T18:15:46.652Z,9.18
2023-04-20T18:18:13.464Z,8.23
2023-04-20T18:20:40.733Z,9.90
2023-04-20T18:23:07.526Z,14.73
2023-04-20T18:25:34.253Z,13.27
2023-04-20T18:28:00.889Z,11.73
2023-04-20T18:30:27.760Z,14.82
2023-04-20T18:32:54.602Z,17.08
2023-04-20T18:35:21.338Z,22.17
2023-04-20T18:37:48.112Z,17.95
2023-04-20T18:40:16.220Z,18.75
2023-04-20T18:42:43.306Z,15.68
2023-04-20T18:45:11.369Z,12.93
2023-04-20T18:47:37.967Z,12.57
2023-04-20T18:50:05.472Z,15.48
2023-04-20T18:52:33.328Z,20.48
2023-04-20T18:55:00.181Z,24.33
2023-04-20T18:57:28.798Z,22.80
2023-04-20T18:59:56.484Z,22.35
2023-04-20T19:02:23.375Z,17.80
2023-04-20T19:04:51.131Z,18.35
2023-04-20T19:07:18.398Z,18.52
2023-04-20T19:09:45.383Z,19.67
2023-04-20T19:12:12.237Z,17.42
2023-04-20T19:14:38.994Z,21.25
2023-04-20T19:17:07.327Z,19.33
2023-04-20T19:19:34.544Z,20.95
2023-04-20T19:22:02.198Z,19.40
2023-04-20T19:24:29.442Z,19.52
2023-04-20T19:26:56.227Z,15.77
2023-04-20T19:29:23.034Z,17.20
2023-04-20T19:31:49.948Z,16.02
2023-04-20T19:34:17.256Z,15.55
2023-04-20T19:36:44.480Z,14.38
2023-04-20T19:39:11.607Z,12.88
2023-04-20T19:41:38.370Z,12.77
2023-04-20T19:44:06.626Z,13.38
2023-04-20T19:46:33.944Z,14.77
2023-04-20T19:49:01.307Z,13.95
2023-04-20T19:51:28.679Z,12.02
2023-04-20T19:53:58.510Z,12.32
2023-04-20T19:56:25.828Z,13.60
2023-04-20T19:58:53.755Z,9.18
2023-04-20T20:01:20.713Z,10.98
2023-04-20T20:03:47.879Z,10.07
2023-04-20T20:06:14.746Z,8.85
2023-04-20T20:08:41.697Z,11.35
2023-04-20T20:11:11.735Z,8.50
2023-04-20T20:13:38.730Z,12.20
2023-04-20T20:16:05.500Z,10.45
2023-04-20T20:18:32.402Z,14.07
2023-04-20T20:20:59.038Z,7.00
2023-04-20T20:23:25.782Z,10.07
2023-04-20T20:25:52.580Z,10.77
2023-04-20T20:28:19.376Z,11.65
2023-04-20T20:30:46.216Z,11.52
2023-04-20T20:33:13.152Z,10.40
2023-04-20T20:35:40.131Z,14.32
2023-04-20T20:38:08.052Z,10.30
2023-04-20T20:40:35.524Z,7.45
2023-04-20T20:43:02.644Z,11.32
2023-04-20T20:45:30.455Z,9.50
2023-04-20T20:47:58.204Z,11.48
2023-04-20T20:50:27.833Z,10.27
2023-04-20T20:52:54.661Z,11.82
2023-04-20T20:55:21.348Z,9.57
2023-04-20T20:57:47.912Z,7.32
2023-04-20T21:00:14.802Z,9.27
2023-04-20T21:02:42.014Z,13.10
2023-04-20T21:05:09.101Z,10.88
2023-04-20T21:07:36.065Z,10.20
2023-04-20T21:10:03.488Z,6.43
2023-04-20T21:12:34.099Z,7.75
2023-04-20T21:15:01.092Z,6.28
2023-04-20T21:17:27.824Z,8.70
2023-04-20T21:19:58.100Z,10.43
2023-04-20T21:22:24.811Z,6.35
2023-04-20T21:24:51.449Z,9.55
2023-04-20T21:27:18.100Z,6.30
2023-04-20T21:29:46.267Z,9.25
2023-04-20T21:32:12.989Z,10.10
2023-04-20T21:34:39.818Z,10.13
2023-04-20T21:37:06.374Z,9.55
2023-04-20T21:39:33.226Z,7.15
2023-04-20T21:42:00.203Z,10.25
2023-04-20T21:44:27.300Z,7.65
2023-04-20T21:46:54.110Z,10.93
2023-04-20T21:49:21.122Z,7.63
2023-04-20T21:51:47.832Z,8.55
2023-04-20T21:54:14.728Z,7.00
2023-04-20T21:56:44.444Z,13.73
2023-04-20T21:59:11.044Z,11.05
2023-04-20T22:01:37.895Z,8.40
2023-04-20T22:04:04.874Z,9.32
2023-04-20T22:06:32.709Z,10.75
2023-04-20T22:08:59.333Z,7.03
2023-04-20T22:11:25.969Z,11.38
2023-04-20T22:13:52.686Z,7.78
2023-04-20T22:16:21.102Z,7.78
2023-04-20T22:18:48.957Z,8.15
2023-04-20T22:21:15.771Z,9.15
2023-04-20T22:23:42.366Z,11.27
2023-04-20T22:26:08.902Z,7.47
2023-04-20T22:28:35.477Z,9.65
2023-04-20T22:31:02.206Z,8.02
2023-04-20T22:33:28.881Z,13.68
2023-04-20T22:35:55.596Z,7.75
2023-04-20T22:38:22.303Z,8.77
2023-04-20T22:40:48.958Z,8.05
2023-04-20T22:43:15.927Z,9.30
2023-04-20T22:45:42.501Z,7.65
2023-04-20T22:48:09.414Z,9.48
2023-04-20T22:50:36.219Z,7.35
2023-04-20T22:53:03.696Z,8.00
2023-04-20T22:55:30.518Z,9.98
2023-04-20T22:57:57.119Z,9.10
2023-04-20T23:00:23.684Z,8.02
2023-04-20T23:02:51.460Z,9.15
2023-04-20T23:05:20.478Z,10.75
2023-04-20T23:07:47.444Z,8.07
2023-04-20T23:10:17.128Z,6.97
2023-04-20T23:12:44.669Z,7.70
2023-04-20T23:15:12.136Z,16.55
2023-04-20T23:17:39.166Z,13.82
2023-04-20T23:20:13.810Z,9.02
2023-04-20T23:22:40.880Z,9.73
2023-04-20T23:25:09.892Z,12.02
2023-04-20T23:27:36.956Z,9.85
2023-04-20T23:30:03.902Z,8.43
2023-04-20T23:32:30.712Z,7.38
2023-04-20T23:34:57.474Z,7.68
2023-04-20T23:37:24.441Z,7.72
2023-04-20T23:39:51.060Z,9.95
2023-04-20T23:42:17.667Z,9.82
2023-04-20T23:44:44.290Z,6.28
2023-04-20T23:47:10.931Z,11.35
2023-04-20T23:49:37.562Z,8.73
2023-04-20T23:52:04.360Z,10.25
2023-04-20T23:54:33.251Z,8.60
2023-04-20T23:57:00.117Z,7.65
2023-04-20T23:59:26.884Z,9.13
